Time;durP1;ratioP1;P1;durP2;ratioP2;P2;SDS_P1;SDS_P2;PMS_P1;PMS_P2;Temp;Humidity;BMP_temperature;BMP_pressure;BME280_temperature;BME280_humidity;BME280_pressure;Samples;Min_cycle;Max_cycle;Signal;HPM_P1;HPM_P2
2023/09/18 00:00:24;;;;;;;;;;;;;;;;;;5006349;28;19932;-77
2023/09/18 00:02:51;;;;;;;;;;;;;;;;;;5026333;28;19979;-78
2023/09/18 00:05:18;;;;;;;;;;;;;;;;;;5001431;28;19924;-77
2023/09/18 00:07:44;;;;;;;;;;;;;;;;;;5021797;28;19924;-76
2023/09/18 00:10:11;;;;;;;;;;;;;;;;;;5027550;28;21883;-76
2023/09/18 00:12:38;;;;;;;;;;;;;;;;;;5014244;28;19928;-77
2023/09/18 00:15:04;;;;;;;;;;;;;;;;;;5001443;28;20322;-77
2023/09/18 00:17:31;;;;;;;;;;;;;;;;;;5012086;28;19927;-78
2023/09/18 00:20:00;;;;;;;;;;;;;;;;;;5003021;28;19925;-78
2023/09/18 00:22:26;;;;;;;;;;;;;;;;;;5008727;28;20348;-78
2023/09/18 00:24:53;;;;;;;;;;;;;;;;;;5005100;28;20414;-77
2023/09/18 00:27:20;;;;;;;;;;;;;;;;;;5005105;28;19951;-79
2023/09/18 00:29:47;;;;;;;;;;;;;;;;;;5021176;28;19921;-77
2023/09/18 00:32:13;;;;;;;;;;;;;;;;;;5010968;28;20353;-78
2023/09/18 00:34:40;;;;;;;;;;;;;;;;;;5001166;28;19929;-80
2023/09/18 00:37:06;;;;;;;;;;;;;;;;;;5008181;28;19925;-78
2023/09/18 00:39:33;;;;;;;;;;;;;;;;;;5028306;28;19924;-78
2023/09/18 00:42:00;;;;;;;;;;;;;;;;;;5000982;28;19920;-79
2023/09/18 00:44:27;;;;;;;;;;;;;;;;;;5016592;28;19960;-79
2023/09/18 00:46:55;;;;;;;;;;;;;;;;;;5006841;28;20424;-78
2023/09/18 00:49:22;;;;;;;;;;;;;;;;;;5002569;28;19960;-77
2023/09/18 00:51:48;;;;;;;;;;;;;;;;;;5009711;28;19944;-77
2023/09/18 00:54:15;;;;;;;;;;;;;;;;;;5018867;28;19925;-78
2023/09/18 00:56:41;;;;;;;;;;;;;;;;;;5008818;28;19974;-78
2023/09/18 00:59:08;;;;;;;;;;;;;;;;;;5018704;28;19920;-78
2023/09/18 01:01:35;;;;;;;;;;;;;;;;;;5015932;28;19956;-77
2023/09/18 01:04:01;;;;;;;;;;;;;;;;;;5001383;28;19921;-78
2023/09/18 01:06:30;;;;;;;;;;;;;;;;;;5024007;28;20010;-77
2023/09/18 01:08:57;;;;;;;;;;;;;;;;;;5021626;28;19943;-78
2023/09/18 01:11:23;;;;;;;;;;;;;;;;;;5025638;28;19925;-77
2023/09/18 01:13:50;;;;;;;;;;;;;;;;;;5017211;28;19967;-77
2023/09/18 01:16:17;;;;;;;;;;;;;;;;;;5003757;28;19995;-78
2023/09/18 01:18:43;;;;;;;;;;;;;;;;;;5024262;28;19925;-77
2023/09/18 01:21:10;;;;;;;;;;;;;;;;;;5004651;28;20224;-78
2023/09/18 01:23:37;;;;;;;;;;;;;;;;;;5002190;28;20306;-78
2023/09/18 01:26:03;;;;;;;;;;;;;;;;;;5018524;28;19925;-78
2023/09/18 01:28:30;;;;;;;;;;;;;;;;;;5019417;28;20291;-78
2023/09/18 01:30:56;;;;;;;;;;;;;;;;;;5005404;28;20020;-80
2023/09/18 01:33:23;;;;;;;;;;;;;;;;;;5006204;28;20015;-77
2023/09/18 01:35:50;;;;;;;;;;;;;;;;;;5027831;28;19921;-79
2023/09/18 01:38:18;;;;;;;;;;;;;;;;;;5009815;28;19921;-77
2023/09/18 01:40:45;;;;;;;;;;;;;;;;;;5018159;28;19921;-78
2023/09/18 01:43:12;;;;;;;;;;;;;;;;;;5000675;28;19992;-78
2023/09/18 01:45:39;;;;;;;;;;;;;;;;;;5025150;28;19921;-79
2023/09/18 01:48:06;;;;;;;;;;;;;;;;;;5004453;28;19921;-77
2023/09/18 01:50:32;;;;;;;;;;;;;;;;;;5016507;28;19992;-77
2023/09/18 01:52:59;;;;;;;;;;;;;;;;;;4999954;28;19928;-78
2023/09/18 01:55:26;;;;;;;;;;;;;;;;;;5006381;28;19921;-77
2023/09/18 01:57:53;;;;;;;;;;;;;;;;;;5011062;28;20011;-77
2023/09/18 02:00:23;;;;;;;;;;;;;;;;;;5042450;28;19920;-79
2023/09/18 02:02:49;;;;;;;;;;;;;;;;;;5009945;28;19925;-79
2023/09/18 02:05:21;;;;;;;;;;;;;;;;;;5004302;28;19936;-77
2023/09/18 02:07:48;;;;;;;;;;;;;;;;;;5024261;28;19928;-76
2023/09/18 02:10:16;;;;;;;;;;;;;;;;;;5025058;28;19929;-77
2023/09/18 02:12:43;;;;;;;;;;;;;;;;;;5013685;28;20378;-77
2023/09/18 02:15:11;;;;;;;;;;;;;;;;;;4998073;28;20325;-78
2023/09/18 02:17:37;;;;;;;;;;;;;;;;;;5008338;28;19944;-79
2023/09/18 02:20:11;;;;;;;;;;;;;;;;;;5007099;28;20012;-78
2023/09/18 02:22:39;;;;;;;;;;;;;;;;;;5005112;28;20298;-79
2023/09/18 02:25:07;;;;;;;;;;;;;;;;;;4999830;28;19975;-78
2023/09/18 02:27:33;;;;;;;;;;;;;;;;;;5022321;28;20367;-81
2023/09/18 02:30:00;;;;;;;;;;;;;;;;;;5027572;28;20432;-81
2023/09/18 02:32:27;;;;;;;;;;;;;;;;;;5011188;28;19939;-81
2023/09/18 02:34:54;;;;;;;;;;;;;;;;;;5010862;28;19920;-78
2023/09/18 02:37:20;;;;;;;;;;;;;;;;;;5008961;28;19921;-78
2023/09/18 02:39:48;;;;;;;;;;;;;;;;;;5040892;28;20376;-77
2023/09/18 02:42:15;;;;;;;;;;;;;;;;;;5025660;28;20326;-80
2023/09/18 02:44:42;;;;;;;;;;;;;;;;;;5034540;28;19928;-80
2023/09/18 02:47:09;;;;;;;;;;;;;;;;;;5010992;28;19927;-79
2023/09/18 02:49:37;;;;;;;20.63;4.33;;;;;;;;;;4998869;28;20216;-79
2023/09/18 02:52:05;;;;;;;20.35;4.85;;;;;;;;;;5021312;28;20513;-80
2023/09/18 02:54:31;;;;;;;18.67;4.22;;;;;;;;;;5015014;28;20900;-79
2023/09/18 02:56:59;;;;;;;20.30;4.80;;;;;;;;;;5009678;28;20425;-79
2023/09/18 02:59:26;;;;;;;17.57;3.80;;;;;;;;;;5004952;28;20206;-79
2023/09/18 03:01:54;;;;;;;21.00;4.15;;;;;;;;;;5019798;28;20409;-79
2023/09/18 03:04:21;;;;;;;22.60;4.60;;;;;;;;;;5021657;28;20422;-80
2023/09/18 03:06:50;;;;;;;19.42;4.40;;;;;;;;;;5012003;28;20455;-79
2023/09/18 03:09:18;;;;;;;20.58;4.50;;;;;;;;;;5017364;28;20772;-81
2023/09/18 03:11:45;;;;;;;18.92;3.90;;;;;;;;;;5014537;28;20932;-81
2023/09/18 03:14:13;;;;;;;20.33;5.00;;;;;;;;;;5019272;28;20430;-80
2023/09/18 03:16:40;;;;;;;19.65;4.28;;;;;;;;;;5028932;28;20432;-79
2023/09/18 03:19:07;;;;;;;20.17;4.25;;;;;;;;;;5029333;28;20411;-80
2023/09/18 03:21:35;;;;;;;18.63;4.68;;;;;;;;;;5047375;28;20771;-79
2023/09/18 03:24:05;;;;;;;17.30;4.40;;;;;;;;;;5003648;28;20427;-80
2023/09/18 03:26:32;;;;;;;17.52;4.18;;;;;;;;;;5006000;28;20423;-79
2023/09/18 03:28:59;;;;;;;21.58;4.60;;;;;;;;;;5001579;28;20821;-83
2023/09/18 03:31:29;;;;;;;20.45;4.82;;;;;;;;;;5018963;28;20433;-79
2023/09/18 03:33:57;;;;;;;18.80;4.70;;;;;;;;;;5030172;28;20422;-79
2023/09/18 03:36:26;;;;;;;22.02;4.10;;;;;;;;;;5009134;28;20427;-80
2023/09/18 03:38:53;;;;;;;19.95;4.20;;;;;;;;;;5017737;28;20480;-80
2023/09/18 03:41:23;;;;;;;21.90;4.50;;;;;;;;;;5018897;28;20430;-79
2023/09/18 03:43:55;;;;;;;19.25;4.88;;;;;;;;;;5008447;28;20453;-79
2023/09/18 03:46:22;;;;;;;21.15;4.43;;;;;;;;;;5021005;28;20415;-79
2023/09/18 03:48:53;;;;;;;20.40;4.40;;;;;;;;;;5001809;28;20997;-79
2023/09/18 03:51:21;;;;;;;20.10;4.80;;;;;;;;;;5020757;28;20422;-80
2023/09/18 03:53:48;;;;;;;19.80;4.20;;;;;;;;;;5026558;28;20458;-79
2023/09/18 03:56:17;;;;;;;18.83;4.00;;;;;;;;;;5004117;28;20430;-79
2023/09/18 03:58:49;;;;;;;19.10;3.78;;;;;;;;;;5007976;28;20426;-80
2023/09/18 04:01:16;;;;;;;18.33;3.70;;;;;;;;;;5017219;28;20454;-80
2023/09/18 04:03:45;;;;;;;18.35;3.45;;;;;;;;;;5020819;28;20931;-81
2023/09/18 04:06:13;;;;;;;20.93;4.40;;;;;;;;;;5009056;28;20481;-81
2023/09/18 04:08:43;;;;;;;21.20;3.92;;;;;;;;;;5016954;28;20473;-84
2023/09/18 04:11:12;;;;;;;19.42;3.53;;;;;;;;;;5001444;28;20421;-80
2023/09/18 04:13:40;;;;;;;19.20;4.00;;;;;;;;;;5015887;28;20471;-80
2023/09/18 04:16:13;;;;;;;22.37;3.70;;;;;;;;;;5000476;28;20442;-81
2023/09/18 04:18:43;;;;;;;19.15;3.80;;;;;;;;;;5016939;28;20502;-80
2023/09/18 04:21:11;;;;;;;20.85;3.60;;;;;;;;;;5024847;28;20405;-79
2023/09/18 04:23:39;;;;;;;19.70;3.80;;;;;;;;;;5009874;28;20940;-81
2023/09/18 04:26:07;;;;;;;16.13;3.00;;;;;;;;;;5009345;28;20430;-80
2023/09/18 04:28:34;;;;;;;19.17;3.70;;;;;;;;;;5016617;28;21382;-81
2023/09/18 04:31:03;;;;;;;19.67;3.40;;;;;;;;;;5009270;28;20913;-80
2023/09/18 04:33:37;;;;;;;18.20;3.80;;;;;;;;;;5009975;28;20427;-79
2023/09/18 04:36:05;;;;;;;23.98;4.15;;;;;;;;;;5019127;28;20419;-80
2023/09/18 04:38:32;;;;;;;19.00;3.50;;;;;;;;;;5018266;28;20407;-79
2023/09/18 04:41:01;;;;;;;18.73;4.18;;;;;;;;;;5024006;28;20417;-80
2023/09/18 04:43:30;;;;;;;21.77;3.75;;;;;;;;;;5023352;28;20415;-79
2023/09/18 04:45:59;;;;;;;17.98;3.50;;;;;;;;;;5020453;28;20477;-81
2023/09/18 04:48:28;;;;;;;20.00;3.50;;;;;;;;;;5016114;28;20403;-80
2023/09/18 04:50:56;;;;;;;17.90;3.65;;;;;;;;;;5019323;28;20411;-80
2023/09/18 04:53:25;;;;;;;18.05;3.40;;;;;;;;;;5022775;28;20423;-80
2023/09/18 04:55:58;;;;;;;20.80;4.20;;;;;;;;;;5012599;28;20817;-79
2023/09/18 04:58:26;;;;;;;18.80;3.20;;;;;;;;;;5005905;28;20523;-80
2023/09/18 05:00:53;;;;;;;18.20;3.63;;;;;;;;;;5021245;28;20513;-81
2023/09/18 05:03:21;;;;;;;17.95;3.10;;;;;;;;;;5016637;28;20461;-78
2023/09/18 05:05:48;;;;;;;18.65;3.80;;;;;;;;;;5013273;28;20792;-78
2023/09/18 05:08:23;;;;;;;20.92;3.55;;;;;;;;;;5015500;28;20470;-81
2023/09/18 05:10:53;;;;;;;17.80;3.50;;;;;;;;;;5018895;28;20419;-81
2023/09/18 05:13:23;;;;;;;23.27;4.07;;;;;;;;;;5015344;28;20434;-81
2023/09/18 05:15:50;;;;;;;21.87;3.63;;;;;;;;;;4998549;28;20469;-81
2023/09/18 05:18:18;;;;;;;18.15;3.55;;;;;;;;;;5015130;28;20413;-78
2023/09/18 05:20:45;;;;;;;21.50;3.60;;;;;;;;;;5046250;28;20405;-80
2023/09/18 05:23:12;;;;;;;18.20;3.60;;;;;;;;;;5014015;28;20958;-80
2023/09/18 05:25:44;;;;;;;20.50;4.00;;;;;;;;;;5015343;28;20417;-79
2023/09/18 05:28:10;;;;;;;19.80;3.60;;;;;;;;;;5010075;28;20414;-80
2023/09/18 05:30:40;;;;;;;17.27;3.77;;;;;;;;;;5030074;28;20444;-80
2023/09/18 05:33:09;;;;;;;20.00;3.50;;;;;;;;;;5006673;28;20448;-80
2023/09/18 05:35:39;;;;;;;18.80;3.40;;;;;;;;;;5020297;28;20427;-80
2023/09/18 05:38:08;;;;;;;17.35;3.90;;;;;;;;;;5002114;28;20411;-80
2023/09/18 05:40:35;;;;;;;20.48;3.70;;;;;;;;;;5046801;28;20736;-81
2023/09/18 05:43:11;;;;;;;20.85;3.65;;;;;;;;;;5000821;28;20426;-78
2023/09/18 05:45:40;;;;;;;21.03;3.30;;;;;;;;;;4999770;28;20419;-80
2023/09/18 05:48:07;;;;;;;20.83;3.80;;;;;;;;;;5015939;28;20887;-78
2023/09/18 05:50:35;;;;;;;19.55;3.42;;;;;;;;;;5020259;28;20475;-80
2023/09/18 05:53:03;;;;;;;22.42;3.63;;;;;;;;;;5044672;28;20503;-80
2023/09/18 05:55:31;;;;;;;20.90;4.60;;;;;;;;;;5018952;28;20563;-79
2023/09/18 05:57:59;;;;;;;19.65;4.13;;;;;;;;;;5026463;28;20971;-80
2023/09/18 06:00:28;;;;;;;21.40;4.10;;;;;;;;;;4999726;28;20470;-79
2023/09/18 06:02:55;;;;;;;20.92;3.50;;;;;;;;;;5000605;28;20417;-79
2023/09/18 06:05:23;;;;;;;21.20;2.90;;;;;;;;;;5016973;28;20508;-79
2023/09/18 06:07:50;;;;;;;18.40;2.88;;;;;;;;;;5008379;28;20581;-80
2023/09/18 06:10:18;;;;;;;18.95;3.15;;;;;;;;;;5022213;28;20894;-80
2023/09/18 06:12:49;;;;;;;21.20;2.80;;;;;;;;;;5000752;28;20423;-80
2023/09/18 06:15:16;;;;;;;22.08;3.60;;;;;;;;;;5014840;28;20423;-80
2023/09/18 06:17:46;;;;;;;17.75;3.30;;;;;;;;;;5013331;28;20419;-79
2023/09/18 06:20:15;;;;;;;18.40;2.88;;;;;;;;;;5005071;28;20517;-79
2023/09/18 06:22:43;;;;;;;18.40;3.20;;;;;;;;;;5022688;28;20780;-78
2023/09/18 06:25:10;;;;;;;19.45;2.70;;;;;;;;;;4998875;28;20465;-79
2023/09/18 06:27:37;;;;;;;17.48;2.30;;;;;;;;;;5018182;28;20435;-79
2023/09/18 06:30:05;;;;;;;17.30;2.90;;;;;;;;;;4995639;28;20981;-77
2023/09/18 06:32:32;;;;;;;19.02;2.70;;;;;;;;;;5032129;28;20936;-80
2023/09/18 06:35:01;;;;;;;17.23;2.20;;;;;;;;;;5019301;28;20900;-78
2023/09/18 06:37:28;;;;;;;16.60;2.10;;;;;;;;;;5041540;28;20423;-77
2023/09/18 06:39:56;;;;;;;19.67;3.00;;;;;;;;;;5021217;28;20457;-78
2023/09/18 06:42:23;;;;;;;18.02;2.20;;;;;;;;;;5005524;28;20469;-78
2023/09/18 06:44:56;;;;;;;17.30;2.40;;;;;;;;;;5011376;28;20429;-78
2023/09/18 06:47:26;;;;;;;15.68;2.00;;;;;;;;;;5023845;28;20426;-78
2023/09/18 06:49:54;;;;;;;18.08;3.25;;;;;;;;;;5022231;28;20426;-80
2023/09/18 06:52:26;;;;;;;17.90;2.60;;;;;;;;;;5004802;28;20505;-81
2023/09/18 06:54:53;;;;;;;18.97;2.70;;;;;;;;;;5002972;28;20429;-80
2023/09/18 06:57:21;;;;;;;15.38;2.08;;;;;;;;;;5028946;28;20776;-78
2023/09/18 06:59:48;;;;;;;16.73;2.20;;;;;;;;;;5016086;28;20465;-79
2023/09/18 07:02:15;;;;;;;19.20;2.33;;;;;;;;;;5017284;28;20415;-80
2023/09/18 07:04:45;;;;;;;17.00;2.30;;;;;;;;;;5008139;28;20418;-78
2023/09/18 07:07:13;;;;;;;16.98;2.20;;;;;;;;;;5015202;28;20440;-78
2023/09/18 07:09:41;;;;;;;16.67;2.85;;;;;;;;;;5036603;28;20407;-79
2023/09/18 07:12:28;;;;;;;20.70;2.53;;;;;;;;;;5008091;28;20753;-78
2023/09/18 07:14:55;;;;;;;15.80;1.80;;;;;;;;;;5001189;28;20453;-80
2023/09/18 07:17:22;;;;;;;16.15;2.03;;;;;;;;;;4994824;28;20419;-79
2023/09/18 07:19:49;;;;;;;15.30;1.90;;;;;;;;;;5041184;28;20421;-80
2023/09/18 07:22:16;;;;;;;16.73;2.30;;;;;;;;;;5000840;28;20426;-78
2023/09/18 07:24:45;;;;;;;15.52;1.90;;;;;;;;;;5016694;28;20820;-79
2023/09/18 07:27:12;;;;;;;16.45;1.70;;;;;;;;;;5019168;28;21378;-80
2023/09/18 07:29:39;;;;;;;18.07;2.00;;;;;;;;;;5021292;28;20414;-79
2023/09/18 07:32:06;;;;;;;18.77;1.90;;;;;;;;;;5003836;28;20422;-78
2023/09/18 07:34:33;;;;;;;17.48;2.30;;;;;;;;;;5000236;28;20407;-80
2023/09/18 07:37:00;;;;;;;17.17;2.00;;;;;;;;;;5007581;28;20512;-78
2023/09/18 07:39:27;;;;;;;15.10;1.80;;;;;;;;;;5022801;28;20411;-79
2023/09/18 07:41:58;;;;;;;14.90;1.70;;;;;;;;;;5013201;28;20925;-78
2023/09/18 07:44:25;;;;;;;16.10;1.70;;;;;;;;;;5009699;28;20419;-80
2023/09/18 07:46:54;;;;;;;14.90;1.50;;;;;;;;;;5018544;28;20426;-80
2023/09/18 07:49:21;;;;;;;16.45;1.90;;;;;;;;;;5020849;28;20423;-80
2023/09/18 07:51:47;;;;;;;15.05;1.75;;;;;;;;;;5037509;28;20414;-78
2023/09/18 07:54:16;;;;;;;16.10;1.50;;;;;;;;;;5015968;28;20458;-80
2023/09/18 07:56:43;;;;;;;15.52;1.40;;;;;;;;;;5019504;28;20407;-78
2023/09/18 07:59:17;;;;;;;14.25;1.30;;;;;;;;;;5010783;28;20414;-78
2023/09/18 08:01:43;;;;;;;16.60;1.77;;;;;;;;;;5025396;28;20446;-78
2023/09/18 08:04:11;;;;;;;17.73;2.10;;;;;;;;;;5039804;28;20403;-78
2023/09/18 08:06:39;;;;;;;16.07;1.60;;;;;;;;;;5018307;28;20525;-79
2023/09/18 08:09:06;;;;;;;15.70;1.50;;;;;;;;;;5005020;28;20425;-79
2023/09/18 08:11:33;;;;;;;14.57;1.60;;;;;;;;;;5032125;28;20883;-79
2023/09/18 08:14:00;;;;;;;16.48;1.65;;;;;;;;;;4999229;28;20940;-79
2023/09/18 08:16:29;;;;;;;14.90;1.70;;;;;;;;;;4999642;28;20414;-80
2023/09/18 08:18:56;;;;;;;15.15;1.83;;;;;;;;;;5019296;28;20426;-79
2023/09/18 08:21:24;;;;;;;15.10;1.60;;;;;;;;;;5019125;28;20512;-79
2023/09/18 08:23:51;;;;;;;14.32;1.60;;;;;;;;;;5021426;28;20775;-81
2023/09/18 08:26:18;;;;;;;15.43;1.83;;;;;;;;;;5014935;28;20411;-77
2023/09/18 08:28:45;;;;;;;17.30;1.75;;;;;;;;;;5014317;28;20823;-80
2023/09/18 08:31:14;;;;;;;16.15;1.90;;;;;;;;;;5035802;28;20413;-78
2023/09/18 08:33:43;;;;;;;14.50;1.60;;;;;;;;;;5028228;28;20827;-80
2023/09/18 08:36:12;;;;;;;15.75;1.50;;;;;;;;;;5026683;28;20906;-79
2023/09/18 08:38:39;;;;;;;15.87;1.80;;;;;;;;;;5025539;28;20428;-79
2023/09/18 08:41:08;;;;;;;15.10;1.70;;;;;;;;;;5025818;28;20411;-79
2023/09/18 08:43:37;;;;;;;16.50;1.60;;;;;;;;;;5021836;28;20461;-78
2023/09/18 08:46:04;;;;;;;15.30;1.60;;;;;;;;;;5011186;28;20422;-80
2023/09/18 08:48:34;;;;;;;16.90;1.70;;;;;;;;;;5033416;28;20532;-78
2023/09/18 08:51:04;;;;;;;15.00;1.50;;;;;;;;;;5015512;28;20764;-79
2023/09/18 08:53:32;;;;;;;15.07;1.38;;;;;;;;;;5014320;28;20429;-80
2023/09/18 08:56:01;;;;;;;17.75;2.05;;;;;;;;;;5010693;28;20416;-78
2023/09/18 08:58:31;;;;;;;18.98;1.80;;;;;;;;;;5029060;28;20767;-78
2023/09/18 09:00:59;;;;;;;14.85;1.40;;;;;;;;;;5017727;28;20454;-79
2023/09/18 09:03:26;;;;;;;14.70;1.60;;;;;;;;;;5035141;28;20415;-80
2023/09/18 09:05:53;;;;;;;18.40;1.80;;;;;;;;;;5017302;28;20468;-81
2023/09/18 09:08:22;;;;;;;16.30;1.60;;;;;;;;;;5019212;28;20502;-81
2023/09/18 09:10:49;;;;;;;14.45;1.38;;;;;;;;;;5014678;28;20629;-79
2023/09/18 09:13:16;;;;;;;14.80;1.40;;;;;;;;;;5022247;28;20427;-81
2023/09/18 09:16:03;;;;;;;14.70;1.60;;;;;;;;;;5030488;28;20738;-78
2023/09/18 09:18:34;;;;;;;15.25;1.50;;;;;;;;;;5017602;28;20512;-81
2023/09/18 09:21:01;;;;;;;15.60;1.90;;;;;;;;;;5035633;28;20407;-80
2023/09/18 09:23:44;;;;;;;16.20;1.50;;;;;;;;;;5021057;28;20395;-79
2023/09/18 09:26:15;;;;;;;16.65;1.88;;;;;;;;;;5030151;28;20410;-79
2023/09/18 09:28:43;;;;;;;14.98;1.50;;;;;;;;;;5014603;28;20450;-78
2023/09/18 09:31:13;;;;;;;15.05;1.40;;;;;;;;;;5015131;28;20459;-81
2023/09/18 09:33:49;;;;;;;15.70;1.50;;;;;;;;;;5021621;28;20417;-82
2023/09/18 09:36:17;;;;;;;15.50;1.70;;;;;;;;;;5034162;28;20945;-80
2023/09/18 09:38:46;;;;;;;17.80;2.00;;;;;;;;;;5028618;28;20410;-80
2023/09/18 09:41:13;;;;;;;16.60;1.60;;;;;;;;;;5022630;28;20407;-80
2023/09/18 09:43:42;;;;;;;16.58;1.48;;;;;;;;;;5020223;28;20406;-82
2023/09/18 09:46:14;;;;;;;16.70;1.70;;;;;;;;;;5038178;28;20494;-79
2023/09/18 09:48:59;;;;;;;14.52;1.50;;;;;;;;;;5030484;28;20714;-80
2023/09/18 09:51:26;;;;;;;15.50;1.55;;;;;;;;;;5037792;28;20409;-81
2023/09/18 09:53:55;;;;;;;18.80;2.97;;;;;;;;;;5017770;28;20427;-82
2023/09/18 09:56:22;;;;;;;15.13;1.60;;;;;;;;;;5012500;28;20399;-83
2023/09/18 09:59:11;;;;;;;14.68;1.50;;;;;;;;;;5028574;28;20402;-83
2023/09/18 10:01:40;;;;;;;15.30;1.40;;;;;;;;;;5020157;28;20415;-81
2023/09/18 10:04:09;;;;;;;15.63;1.40;;;;;;;;;;5012121;28;20737;-78
2023/09/18 10:06:36;;;;;;;15.93;1.73;;;;;;;;;;5018339;28;20411;-82
2023/09/18 10:09:07;;;;;;;15.55;1.60;;;;;;;;;;5018348;28;20421;-81
2023/09/18 10:11:37;;;;;;;17.20;1.70;;;;;;;;;;5015807;28;20762;-82
2023/09/18 10:14:07;;;;;;;18.60;1.70;;;;;;;;;;5032554;28;20430;-79
2023/09/18 10:16:35;;;;;;;14.20;1.40;;;;;;;;;;5019179;28;20416;-80
2023/09/18 10:19:08;;;;;;;16.30;1.80;;;;;;;;;;5017306;28;20782;-81
2023/09/18 10:21:38;;;;;;;14.93;1.42;;;;;;;;;;5029559;28;20962;-81
2023/09/18 10:24:12;;;;;;;20.65;1.90;;;;;;;;;;5021867;28;20406;-80
2023/09/18 10:26:46;;;;;;;16.60;1.60;;;;;;;;;;5001510;28;20517;-80
2023/09/18 10:29:14;;;;;;;14.70;1.60;;;;;;;;;;5033367;28;20490;-82
2023/09/18 10:31:41;;;;;;;;;;;;;;;;;;5037180;28;20045;-82
2023/09/18 10:34:08;;;;;;;14.03;1.30;;;;;;;;;;5038426;28;20200;-80
2023/09/18 10:36:36;;;;;;;13.07;1.30;;;;;;;;;;5016311;28;20519;-82
2023/09/18 10:39:08;;;;;;;14.33;1.70;;;;;;;;;;5013723;28;20479;-82
2023/09/18 10:41:37;;;;;;;17.00;3.17;;;;;;;;;;5026242;28;20432;-79
2023/09/18 10:44:04;;;;;;;14.50;1.60;;;;;;;;;;5018838;28;20429;-82
2023/09/18 10:46:32;;;;;;;14.17;1.30;;;;;;;;;;5038030;28;20920;-82
2023/09/18 10:49:00;;;;;;;15.77;1.30;;;;;;;;;;5042296;28;20441;-80
2023/09/18 10:51:27;;;;;;;16.23;1.27;;;;;;;;;;5024337;28;21043;-86
2023/09/18 10:53:56;;;;;;;13.60;1.20;;;;;;;;;;5036132;28;20566;-80
2023/09/18 10:56:24;;;;;;;15.43;1.20;;;;;;;;;;5015129;28;20480;-80
2023/09/18 10:58:57;;;;;;;13.20;1.40;;;;;;;;;;5038074;28;20432;-84
2023/09/18 11:01:27;;;;;;;13.93;1.20;;;;;;;;;;5020651;28;20437;-83
2023/09/18 11:03:59;;;;;;;13.00;1.20;;;;;;;;;;5024953;28;20432;-82
2023/09/18 11:06:26;;;;;;;14.07;1.30;;;;;;;;;;5019933;28;20816;-79
2023/09/18 11:09:01;;;;;;;14.57;1.70;;;;;;;;;;5041069;28;20550;-80
2023/09/18 11:11:29;;;;;;;14.53;1.57;;;;;;;;;;5031531;28;20438;-81
2023/09/18 11:13:58;;;;;;;14.07;1.53;;;;;;;;;;4997618;28;20841;-80
2023/09/18 11:16:38;;;;;;;17.77;2.13;;;;;;;;;;5016010;28;20447;-82
2023/09/18 11:19:08;;;;;;;13.20;1.40;;;;;;;;;;5036899;28;20439;-79
2023/09/18 11:21:35;;;;;;;;;;;;;;;;;;5035825;28;20855;-80
2023/09/18 11:24:04;;;;;;;14.20;1.30;;;;;;;;;;5022222;28;20422;-81
2023/09/18 11:26:31;;;;;;;14.07;1.20;;;;;;;;;;5011272;28;20789;-86
2023/09/18 11:28:58;;;;;;;;;;;;;;;;;;5016750;28;20688;-82
2023/09/18 11:31:24;;;;;;;;;;;;;;;;;;5026482;28;19921;-84
2023/09/18 11:33:53;;;;;;;14.45;1.38;;;;;;;;;;5028418;28;20738;-81
2023/09/18 11:36:19;;;;;;;;;;;;;;;;;;5022771;28;20053;-81
2023/09/18 11:38:54;;;;;;;14.50;1.57;;;;;;;;;;5023107;28;20419;-77
2023/09/18 11:41:27;;;;;;;15.43;1.45;;;;;;;;;;5019880;28;20395;-80
2023/09/18 11:44:09;;;;;;;14.43;1.23;;;;;;;;;;5033208;28;20724;-80
2023/09/18 11:46:39;;;;;;;13.87;1.53;;;;;;;;;;5023478;28;20300;-79
2023/09/18 11:49:10;;;;;;;13.47;1.40;;;;;;;;;;5041281;28;20531;-80
2023/09/18 11:51:37;;;;;;;14.30;2.03;;;;;;;;;;5007973;28;20558;-80
2023/09/18 11:54:05;;;;;;;14.70;1.57;;;;;;;;;;5035807;28;20481;-80
2023/09/18 11:56:33;;;;;;;14.40;1.50;;;;;;;;;;5020595;28;20469;-79
2023/09/18 11:59:04;;;;;;;;;;;;;;;;;;5023299;28;20284;-79
2023/09/18 12:01:35;;;;;;;14.25;1.33;;;;;;;;;;5018252;28;20412;-77
2023/09/18 12:04:09;;;;;;;14.00;2.00;;;;;;;;;;5019830;28;20194;-81
2023/09/18 12:06:38;;;;;;;13.27;1.60;;;;;;;;;;5029706;28;20445;-79
2023/09/18 12:09:05;;;;;;;13.37;1.50;;;;;;;;;;5036488;28;20518;-80
2023/09/18 12:11:39;;;;;;;14.70;1.60;;;;;;;;;;5023708;28;20968;-80
2023/09/18 12:14:06;;;;;;;14.23;1.70;;;;;;;;;;5018807;28;21012;-80
2023/09/18 12:16:38;;;;;;;14.47;1.50;;;;;;;;;;5020693;28;20479;-85
2023/09/18 12:19:06;;;;;;;13.20;1.27;;;;;;;;;;4997748;28;20533;-79
2023/09/18 12:21:41;;;;;;;14.50;1.60;;;;;;;;;;5013191;28;20441;-83
2023/09/18 12:24:12;;;;;;;16.40;2.00;;;;;;;;;;5024559;28;20910;-79
2023/09/18 12:26:39;;;;;;;17.90;1.60;;;;;;;;;;5027216;28;20209;-79
2023/09/18 12:29:07;;;;;;;13.50;1.83;;;;;;;;;;5041380;28;20433;-81
2023/09/18 12:31:34;;;;;;;;;;;;;;;;;;5044275;28;20280;-81
2023/09/18 12:34:01;;;;;;;15.07;1.40;;;;;;;;;;5038664;28;20441;-81
2023/09/18 12:36:30;;;;;;;14.97;1.50;;;;;;;;;;5038424;28;20277;-80
2023/09/18 12:39:01;;;;;;;12.93;1.33;;;;;;;;;;5047962;28;20471;-80
2023/09/18 12:41:30;;;;;;;15.87;1.60;;;;;;;;;;5024665;28;20445;-80
2023/09/18 12:43:59;;;;;;;13.70;1.63;;;;;;;;;;5026657;28;20484;-79
2023/09/18 12:46:26;;;;;;;;;;;;;;;;;;5026587;28;20856;-84
2023/09/18 12:48:52;;;;;;;13.90;1.60;;;;;;;;;;5024120;28;20383;-80
2023/09/18 12:51:28;;;;;;;13.07;1.47;;;;;;;;;;5012902;28;20824;-82
2023/09/18 12:53:55;;;;;;;;;;;;;;;;;;5007257;28;20307;-79
2023/09/18 12:56:23;;;;;;;;;;;;;;;;;;5042882;28;19971;-80
2023/09/18 12:58:49;;;;;;;;;;;;;;;;;;5025468;28;19921;-80
2023/09/18 13:01:37;;;;;;;;;;;;;;;;;;5020599;28;19943;-78
2023/09/18 13:04:05;;;;;;;;;;;;;;;;;;5023976;28;19927;-80
2023/09/18 13:06:32;;;;;;;;;;;;;;;;;;5044378;28;19921;-79
2023/09/18 13:08:59;;;;;;;;;;;;;;;;;;5019438;28;20007;-82
2023/09/18 13:11:27;;;;;;;;;;;;;;;;;;5018020;28;19923;-80
2023/09/18 13:13:53;;;;;;;;;;;;;;;;;;5040640;28;20007;-81
2023/09/18 13:16:20;;;;;;;;;;;;;;;;;;5021000;28;19924;-80
2023/09/18 13:18:46;;;;;;;;;;;;;;;;;;5000352;28;19967;-80
2023/09/18 13:21:13;;;;;;;;;;;;;;;;;;5029875;28;19987;-81
2023/09/18 13:23:40;;;;;;;;;;;;;;;;;;5009460;28;19925;-75
2023/09/18 13:26:07;;;;;;;;;;;;;;;;;;5042751;28;20373;-78
2023/09/18 13:28:35;;;;;;;;;;;;;;;;;;5012966;28;19972;-77
2023/09/18 13:31:04;;;;;;;;;;;;;;;;;;5000442;28;20286;-80
2023/09/18 13:33:34;;;;;;;;;;;;;;;;;;5038557;28;19978;-80
2023/09/18 13:36:02;;;;;;;;;;;;;;;;;;5037609;28;20020;-80
2023/09/18 13:38:29;;;;;;;;;;;;;;;;;;5013276;28;19920;-79
2023/09/18 13:40:56;;;;;;;;;;;;;;;;;;5023910;28;19931;-83
2023/09/18 13:43:22;;;;;;;;;;;;;;;;;;5015459;28;19928;-79
2023/09/18 13:45:53;;;;;;;;;;;;;;;;;;5016580;28;20278;-80
2023/09/18 13:48:20;;;;;;;;;;;;;;;;;;5005642;28;20014;-76
2023/09/18 13:50:47;;;;;;;;;;;;;;;;;;5043208;28;19928;-80
2023/09/18 13:53:14;;;;;;;;;;;;;;;;;;5044702;28;19931;-82
2023/09/18 13:55:41;;;;;;;;;;;;;;;;;;5033553;28;20024;-80
2023/09/18 13:58:07;;;;;;;;;;;;;;;;;;5000500;28;19925;-84
2023/09/18 14:00:35;;;;;;;;;;;;;;;;;;5033528;28;20019;-80
2023/09/18 14:03:02;;;;;;;;;;;;;;;;;;5035600;28;20429;-77
2023/09/18 14:05:30;;;;;;;;;;;;;;;;;;5034613;28;19971;-79
2023/09/18 14:07:59;;;;;;;;;;;;;;;;;;5017052;28;19924;-76
2023/09/18 14:10:27;;;;;;;;;;;;;;;;;;5030116;28;19921;-79
2023/09/18 14:12:54;;;;;;;;;;;;;;;;;;5017052;28;19924;-80
2023/09/18 14:15:21;;;;;;;;;;;;;;;;;;5032786;28;19921;-75
2023/09/18 14:17:48;;;;;;;;;;;;;;;;;;5003460;28;20394;-79
2023/09/18 14:20:18;;;;;;;;;;;;;;;;;;5002242;28;19932;-82
2023/09/18 14:22:44;;;;;;;;;;;;;;;;;;5012865;28;20012;-81
2023/09/18 14:25:11;;;;;;;;;;;;;;;;;;5016812;28;19925;-81
2023/09/18 14:27:37;;;;;;;;;;;;;;;;;;5027162;28;19925;-80
2023/09/18 14:30:06;;;;;;;;;;;;;;;;;;4998406;28;19925;-78
2023/09/18 14:32:35;;;;;;;;;;;;;;;;;;5010315;28;20492;-76
2023/09/18 14:35:02;;;;;;;;;;;;;;;;;;5018366;28;19927;-76
2023/09/18 14:37:29;;;;;;;;;;;;;;;;;;5035223;28;20554;-78
2023/09/18 14:39:56;;;;;;;;;;;;;;;;;;5000179;28;19963;-80
2023/09/18 14:42:23;;;;;;;;;;;;;;;;;;5046572;28;20360;-78
2023/09/18 14:44:53;;;;;;;;;;;;;;;;;;5046829;28;19925;-76
2023/09/18 14:47:20;;;;;;;;;;;;;;;;;;5024097;28;19921;-81
2023/09/18 14:49:49;;;;;;;;;;;;;;;;;;5040855;28;20023;-74
2023/09/18 14:52:17;;;;;;;;;;;;;;;;;;5029753;28;20294;-76
2023/09/18 14:54:43;;;;;;;;;;;;;;;;;;5017739;28;20370;-79
2023/09/18 14:57:10;;;;;;;;;;;;;;;;;;5039037;28;19932;-80
2023/09/18 14:59:38;;;;;;;;;;;;;;;;;;5045924;28;20019;-78
2023/09/18 15:02:07;;;;;;;;;;;;;;;;;;5006576;28;19956;-81
2023/09/18 15:04:35;;;;;;;;;;;;;;;;;;5004052;28;19928;-82
2023/09/18 15:07:01;;;;;;;;;;;;;;;;;;5024229;28;20019;-84
2023/09/18 15:09:28;;;;;;;;;;;;;;;;;;5035971;28;19979;-81
2023/09/18 15:11:54;;;;;;;;;;;;;;;;;;5028428;28;19978;-80
2023/09/18 15:14:21;;;;;;;;;;;;;;;;;;5020691;28;19925;-79
2023/09/18 15:16:48;;;;;;;;;;;;;;;;;;5040065;28;19925;-80
2023/09/18 15:19:16;;;;;;;;;;;;;;;;;;5018336;28;20019;-78
2023/09/18 15:21:45;;;;;;;;;;;;;;;;;;5008649;28;19921;-80